Villa Ana, Argentina
Current Conditions -  °F | °C
As of 4:00 PM on Thursday 30 Oct 2014 (Local Time) from SARE Reporting Station
Broken Clouds Broken Clouds  
Wind Chill: 79°   Ceiling: 20000
Heat Index: 81°   Visibility: 6mi
Dew Point: 68°   Wind: 5mph
Humidity: 69%   Direction: 20°NNE
Pressure: 29.74"   Gusts: NA
Location:  28.48°S, 59.62°W
Report Text: SARE 301900Z 02004KT 9999 FEW015 SCT100BKN200 26/20 Q1007
Loading
Personal Weather Stations






























Interactive Weather Map
Tropical Storm Tracking
New forecast layout! Learn more

10-Day Weather Forecast

Advertisements
Track Severe Weather on mobile